Terminal Aerodrome Forecast
Issued by NWS Twin Cities, MN

Home | Current Version | Previous Version | Graphics & Text | Print | Product List | Glossary On
Versions: 1 2 3 4 5 6 7 8 9 10 11 12 13 14 15 16 17 18 19 20 21 22 23 24 25 26 27 28
000
FTUS43 KMPX 222100 AAA
TAFMSP
TAF AMD
KMSP 222100Z 2221/2324 08006KT P6SM FEW250
     FM231500 12008KT P6SM SCT035 BKN110 PROB30 2315/2318 TSRA
      BKN035CB
     FM231800 14014G20KT P6SM VCTS BKN050CB=

USA.gov is the U.S. government's official web portal to all federal, state and local government web resources and services.